sensor_id;sensor_type;location;lat;lon;timestamp;temperature;humidity
81315;DHT22;72214;52.510;5.718;2023-08-17T00:01:35;17.60;70.40
81315;DHT22;72214;52.510;5.718;2023-08-17T00:04:07;17.60;70.40
81315;DHT22;72214;52.510;5.718;2023-08-17T00:06:36;17.50;70.40
81315;DHT22;72214;52.510;5.718;2023-08-17T00:09:06;17.50;70.50
81315;DHT22;72214;52.510;5.718;2023-08-17T00:11:36;17.50;70.50
81315;DHT22;72214;52.510;5.718;2023-08-17T00:14:05;17.50;70.50
81315;DHT22;72214;52.510;5.718;2023-08-17T00:16:34;17.50;70.60
81315;DHT22;72214;52.510;5.718;2023-08-17T00:19:04;17.40;70.60
81315;DHT22;72214;52.510;5.718;2023-08-17T00:21:36;17.40;70.70
81315;DHT22;72214;52.510;5.718;2023-08-17T00:24:06;17.40;70.70
81315;DHT22;72214;52.510;5.718;2023-08-17T00:26:35;17.30;70.70
81315;DHT22;72214;52.510;5.718;2023-08-17T00:29:05;17.30;70.70
81315;DHT22;72214;52.510;5.718;2023-08-17T00:31:34;17.30;70.70
81315;DHT22;72214;52.510;5.718;2023-08-17T00:34:03;17.30;70.80
81315;DHT22;72214;52.510;5.718;2023-08-17T00:36:33;17.30;70.80
81315;DHT22;72214;52.510;5.718;2023-08-17T00:39:04;17.20;70.80
81315;DHT22;72214;52.510;5.718;2023-08-17T00:41:34;17.30;70.80
81315;DHT22;72214;52.510;5.718;2023-08-17T00:44:03;17.20;70.80
81315;DHT22;72214;52.510;5.718;2023-08-17T00:46:33;17.20;70.90
81315;DHT22;72214;52.510;5.718;2023-08-17T00:49:02;17.20;70.90
81315;DHT22;72214;52.510;5.718;2023-08-17T00:51:32;17.20;70.90
81315;DHT22;72214;52.510;5.718;2023-08-17T00:54:05;17.20;71.00
81315;DHT22;72214;52.510;5.718;2023-08-17T00:56:34;17.20;71.00
81315;DHT22;72214;52.510;5.718;2023-08-17T00:59:04;17.20;71.00
81315;DHT22;72214;52.510;5.718;2023-08-17T01:01:34;17.20;71.00
81315;DHT22;72214;52.510;5.718;2023-08-17T01:04:03;17.20;71.00
81315;DHT22;72214;52.510;5.718;2023-08-17T01:06:33;17.20;71.00
81315;DHT22;72214;52.510;5.718;2023-08-17T01:09:09;17.20;71.10
81315;DHT22;72214;52.510;5.718;2023-08-17T01:11:49;17.20;71.10
81315;DHT22;72214;52.510;5.718;2023-08-17T01:14:25;17.20;71.10
81315;DHT22;72214;52.510;5.718;2023-08-17T01:17:00;17.10;71.10
81315;DHT22;72214;52.510;5.718;2023-08-17T01:19:32;17.10;71.20
81315;DHT22;72214;52.510;5.718;2023-08-17T01:22:05;17.10;71.10
81315;DHT22;72214;52.510;5.718;2023-08-17T01:24:37;17.00;71.20
81315;DHT22;72214;52.510;5.718;2023-08-17T01:27:06;17.00;71.30
81315;DHT22;72214;52.510;5.718;2023-08-17T01:29:36;17.00;71.30
81315;DHT22;72214;52.510;5.718;2023-08-17T01:32:12;17.00;71.40
81315;DHT22;72214;52.510;5.718;2023-08-17T01:34:47;17.00;71.30
81315;DHT22;72214;52.510;5.718;2023-08-17T01:37:19;17.00;71.30
81315;DHT22;72214;52.510;5.718;2023-08-17T01:39:55;17.00;71.40
81315;DHT22;72214;52.510;5.718;2023-08-17T01:42:24;17.00;71.50
81315;DHT22;72214;52.510;5.718;2023-08-17T01:44:57;17.00;71.40
81315;DHT22;72214;52.510;5.718;2023-08-17T01:47:27;16.90;71.50
81315;DHT22;72214;52.510;5.718;2023-08-17T01:49:56;16.90;71.50
81315;DHT22;72214;52.510;5.718;2023-08-17T01:52:27;16.90;71.50
81315;DHT22;72214;52.510;5.718;2023-08-17T01:54:59;16.80;71.60
81315;DHT22;72214;52.510;5.718;2023-08-17T01:57:28;16.80;71.70
81315;DHT22;72214;52.510;5.718;2023-08-17T01:59:59;16.80;71.70
81315;DHT22;72214;52.510;5.718;2023-08-17T02:02:28;16.80;71.70
81315;DHT22;72214;52.510;5.718;2023-08-17T02:04:57;16.80;71.70
81315;DHT22;72214;52.510;5.718;2023-08-17T02:07:26;16.80;71.80
81315;DHT22;72214;52.510;5.718;2023-08-17T02:09:56;16.80;71.80
81315;DHT22;72214;52.510;5.718;2023-08-17T02:12:28;16.80;71.80
81315;DHT22;72214;52.510;5.718;2023-08-17T02:14:57;16.80;71.80
81315;DHT22;72214;52.510;5.718;2023-08-17T02:17:27;16.80;71.80
81315;DHT22;72214;52.510;5.718;2023-08-17T02:19:56;16.80;71.80
81315;DHT22;72214;52.510;5.718;2023-08-17T02:22:25;16.70;71.90
81315;DHT22;72214;52.510;5.718;2023-08-17T02:24:55;16.70;71.90
81315;DHT22;72214;52.510;5.718;2023-08-17T02:27:24;16.70;72.00
81315;DHT22;72214;52.510;5.718;2023-08-17T02:29:56;16.70;72.00
81315;DHT22;72214;52.510;5.718;2023-08-17T02:32:25;16.70;72.10
81315;DHT22;72214;52.510;5.718;2023-08-17T02:34:55;16.70;72.10
81315;DHT22;72214;52.510;5.718;2023-08-17T02:37:24;16.70;72.10
81315;DHT22;72214;52.510;5.718;2023-08-17T02:39:53;16.70;72.10
81315;DHT22;72214;52.510;5.718;2023-08-17T02:42:23;16.70;72.10
81315;DHT22;72214;52.510;5.718;2023-08-17T02:44:56;16.60;72.10
81315;DHT22;72214;52.510;5.718;2023-08-17T02:47:26;16.70;72.10
81315;DHT22;72214;52.510;5.718;2023-08-17T02:49:55;16.70;72.20
81315;DHT22;72214;52.510;5.718;2023-08-17T02:52:25;16.60;72.20
81315;DHT22;72214;52.510;5.718;2023-08-17T02:54:54;16.60;72.20
81315;DHT22;72214;52.510;5.718;2023-08-17T02:57:24;16.70;72.20
81315;DHT22;72214;52.510;5.718;2023-08-17T02:59:56;16.60;72.20
81315;DHT22;72214;52.510;5.718;2023-08-17T03:02:25;16.60;72.20
81315;DHT22;72214;52.510;5.718;2023-08-17T03:04:54;16.60;72.20
81315;DHT22;72214;52.510;5.718;2023-08-17T03:07:23;16.70;72.30
81315;DHT22;72214;52.510;5.718;2023-08-17T03:09:53;16.70;72.20
81315;DHT22;72214;52.510;5.718;2023-08-17T03:12:22;16.70;72.20
81315;DHT22;72214;52.510;5.718;2023-08-17T03:14:52;16.70;72.20
81315;DHT22;72214;52.510;5.718;2023-08-17T03:17:24;16.70;72.30
81315;DHT22;72214;52.510;5.718;2023-08-17T03:19:53;16.70;72.30
81315;DHT22;72214;52.510;5.718;2023-08-17T03:22:25;16.60;72.40
81315;DHT22;72214;52.510;5.718;2023-08-17T03:24:55;16.60;72.40
81315;DHT22;72214;52.510;5.718;2023-08-17T03:27:24;16.70;72.50
81315;DHT22;72214;52.510;5.718;2023-08-17T03:29:55;16.70;72.40
81315;DHT22;72214;52.510;5.718;2023-08-17T03:32:26;16.70;72.40
81315;DHT22;72214;52.510;5.718;2023-08-17T03:34:56;16.70;72.50
81315;DHT22;72214;52.510;5.718;2023-08-17T03:37:25;16.70;72.50
81315;DHT22;72214;52.510;5.718;2023-08-17T03:39:54;16.70;72.50
81315;DHT22;72214;52.510;5.718;2023-08-17T03:42:24;16.60;72.50
81315;DHT22;72214;52.510;5.718;2023-08-17T03:44:53;16.60;72.60
81315;DHT22;72214;52.510;5.718;2023-08-17T03:47:22;16.60;72.50
81315;DHT22;72214;52.510;5.718;2023-08-17T03:49:57;16.60;72.60
81315;DHT22;72214;52.510;5.718;2023-08-17T03:52:26;16.60;72.60
81315;DHT22;72214;52.510;5.718;2023-08-17T03:54:55;16.60;72.60
81315;DHT22;72214;52.510;5.718;2023-08-17T03:57:24;16.70;72.60
81315;DHT22;72214;52.510;5.718;2023-08-17T03:59:53;16.70;72.60
81315;DHT22;72214;52.510;5.718;2023-08-17T04:02:22;16.70;72.60
81315;DHT22;72214;52.510;5.718;2023-08-17T04:04:55;16.70;72.60
81315;DHT22;72214;52.510;5.718;2023-08-17T04:07:24;16.60;72.70
81315;DHT22;72214;52.510;5.718;2023-08-17T04:09:56;16.60;72.70
81315;DHT22;72214;52.510;5.718;2023-08-17T04:12:26;16.70;72.70
81315;DHT22;72214;52.510;5.718;2023-08-17T04:14:56;16.60;72.70
81315;DHT22;72214;52.510;5.718;2023-08-17T04:17:26;16.60;72.70
81315;DHT22;72214;52.510;5.718;2023-08-17T04:19:57;16.60;72.70
81315;DHT22;72214;52.510;5.718;2023-08-17T04:22:27;16.60;72.80
81315;DHT22;72214;52.510;5.718;2023-08-17T04:24:56;16.60;72.80
81315;DHT22;72214;52.510;5.718;2023-08-17T04:27:26;16.60;72.90
81315;DHT22;72214;52.510;5.718;2023-08-17T04:29:55;16.60;72.80
81315;DHT22;72214;52.510;5.718;2023-08-17T04:32:25;16.60;72.80
81315;DHT22;72214;52.510;5.718;2023-08-17T04:34:57;16.60;72.90
81315;DHT22;72214;52.510;5.718;2023-08-17T04:37:26;16.60;72.90
81315;DHT22;72214;52.510;5.718;2023-08-17T04:39:55;16.60;72.90
81315;DHT22;72214;52.510;5.718;2023-08-17T04:42:26;16.60;73.00
81315;DHT22;72214;52.510;5.718;2023-08-17T04:44:55;16.60;73.00
81315;DHT22;72214;52.510;5.718;2023-08-17T04:47:25;16.60;72.90
81315;DHT22;72214;52.510;5.718;2023-08-17T04:49:57;16.60;73.00
81315;DHT22;72214;52.510;5.718;2023-08-17T04:52:26;16.50;73.10
81315;DHT22;72214;52.510;5.718;2023-08-17T04:54:55;16.50;73.10
81315;DHT22;72214;52.510;5.718;2023-08-17T04:57:24;16.50;73.20
81315;DHT22;72214;52.510;5.718;2023-08-17T04:59:55;16.50;73.20
81315;DHT22;72214;52.510;5.718;2023-08-17T05:02:24;16.50;73.20
81315;DHT22;72214;52.510;5.718;2023-08-17T05:04:59;16.50;73.20
81315;DHT22;72214;52.510;5.718;2023-08-17T05:07:29;16.50;73.20
81315;DHT22;72214;52.510;5.718;2023-08-17T05:09:58;16.50;73.20
81315;DHT22;72214;52.510;5.718;2023-08-17T05:12:28;16.50;73.20
81315;DHT22;72214;52.510;5.718;2023-08-17T05:14:57;16.50;73.30
81315;DHT22;72214;52.510;5.718;2023-08-17T05:17:26;16.50;73.30
81315;DHT22;72214;52.510;5.718;2023-08-17T05:19:56;16.50;73.30
81315;DHT22;72214;52.510;5.718;2023-08-17T05:22:28;16.50;73.40
81315;DHT22;72214;52.510;5.718;2023-08-17T05:24:57;16.50;73.40
81315;DHT22;72214;52.510;5.718;2023-08-17T05:27:27;16.50;73.40
81315;DHT22;72214;52.510;5.718;2023-08-17T05:29:56;16.50;73.40
81315;DHT22;72214;52.510;5.718;2023-08-17T05:32:25;16.50;73.40
81315;DHT22;72214;52.510;5.718;2023-08-17T05:34:55;16.50;73.40
81315;DHT22;72214;52.510;5.718;2023-08-17T05:37:24;16.50;73.50
81315;DHT22;72214;52.510;5.718;2023-08-17T05:39:56;16.50;73.50
81315;DHT22;72214;52.510;5.718;2023-08-17T05:42:25;16.50;73.50
81315;DHT22;72214;52.510;5.718;2023-08-17T05:44:55;16.50;73.50
81315;DHT22;72214;52.510;5.718;2023-08-17T05:47:25;16.60;73.50
81315;DHT22;72214;52.510;5.718;2023-08-17T05:49:54;16.50;73.50
81315;DHT22;72214;52.510;5.718;2023-08-17T05:52:23;16.60;73.50
81315;DHT22;72214;52.510;5.718;2023-08-17T05:54:52;16.60;73.50
81315;DHT22;72214;52.510;5.718;2023-08-17T05:57:24;16.60;73.50
81315;DHT22;72214;52.510;5.718;2023-08-17T05:59:53;16.60;73.60
81315;DHT22;72214;52.510;5.718;2023-08-17T06:02:23;16.60;73.50
81315;DHT22;72214;52.510;5.718;2023-08-17T06:04:52;16.70;73.50
81315;DHT22;72214;52.510;5.718;2023-08-17T06:07:21;16.70;73.60
81315;DHT22;72214;52.510;5.718;2023-08-17T06:09:50;16.70;73.60
81315;DHT22;72214;52.510;5.718;2023-08-17T06:12:19;16.70;73.60
81315;DHT22;72214;52.510;5.718;2023-08-17T06:14:51;16.80;73.70
81315;DHT22;72214;52.510;5.718;2023-08-17T06:17:20;16.80;73.60
81315;DHT22;72214;52.510;5.718;2023-08-17T06:19:50;16.80;73.60
81315;DHT22;72214;52.510;5.718;2023-08-17T06:22:19;16.90;73.60
81315;DHT22;72214;52.510;5.718;2023-08-17T06:24:48;16.90;73.60
81315;DHT22;72214;52.510;5.718;2023-08-17T06:27:18;16.90;73.60
81315;DHT22;72214;52.510;5.718;2023-08-17T06:29:47;17.00;73.60
81315;DHT22;72214;52.510;5.718;2023-08-17T06:32:19;17.00;73.50
81315;DHT22;72214;52.510;5.718;2023-08-17T06:34:48;17.00;73.60
81315;DHT22;72214;52.510;5.718;2023-08-17T06:37:17;17.00;73.60
81315;DHT22;72214;52.510;5.718;2023-08-17T06:39:46;17.00;73.60
81315;DHT22;72214;52.510;5.718;2023-08-17T06:42:15;17.10;73.50
81315;DHT22;72214;52.510;5.718;2023-08-17T06:44:45;17.20;73.50
81315;DHT22;72214;52.510;5.718;2023-08-17T06:47:14;17.20;73.50
81315;DHT22;72214;52.510;5.718;2023-08-17T06:49:46;17.20;73.40
81315;DHT22;72214;52.510;5.718;2023-08-17T06:52:15;17.30;73.40
81315;DHT22;72214;52.510;5.718;2023-08-17T06:54:44;17.40;73.40
81315;DHT22;72214;52.510;5.718;2023-08-17T06:57:13;17.50;73.30
81315;DHT22;72214;52.510;5.718;2023-08-17T06:59:42;17.50;73.30
81315;DHT22;72214;52.510;5.718;2023-08-17T07:02:12;17.50;73.20
81315;DHT22;72214;52.510;5.718;2023-08-17T07:04:41;17.60;73.30
81315;DHT22;72214;52.510;5.718;2023-08-17T07:07:13;17.60;73.20
81315;DHT22;72214;52.510;5.718;2023-08-17T07:09:42;17.70;73.20
81315;DHT22;72214;52.510;5.718;2023-08-17T07:12:11;17.70;73.20
81315;DHT22;72214;52.510;5.718;2023-08-17T07:14:40;17.70;73.20
81315;DHT22;72214;52.510;5.718;2023-08-17T07:17:10;17.80;73.20
81315;DHT22;72214;52.510;5.718;2023-08-17T07:19:39;17.80;73.20
81315;DHT22;72214;52.510;5.718;2023-08-17T07:22:08;17.80;73.20
81315;DHT22;72214;52.510;5.718;2023-08-17T07:24:40;17.80;73.20
81315;DHT22;72214;52.510;5.718;2023-08-17T07:27:09;17.90;73.20
81315;DHT22;72214;52.510;5.718;2023-08-17T07:29:38;18.00;73.20
81315;DHT22;72214;52.510;5.718;2023-08-17T07:32:07;18.00;73.20
81315;DHT22;72214;52.510;5.718;2023-08-17T07:34:36;18.00;73.10
81315;DHT22;72214;52.510;5.718;2023-08-17T07:37:06;18.00;73.20
81315;DHT22;72214;52.510;5.718;2023-08-17T07:39:35;18.00;73.20
81315;DHT22;72214;52.510;5.718;2023-08-17T07:42:07;18.10;73.20
81315;DHT22;72214;52.510;5.718;2023-08-17T07:44:36;18.10;73.10
81315;DHT22;72214;52.510;5.718;2023-08-17T07:47:06;18.10;73.00
81315;DHT22;72214;52.510;5.718;2023-08-17T07:49:35;18.20;73.00
81315;DHT22;72214;52.510;5.718;2023-08-17T07:52:04;18.30;73.00
81315;DHT22;72214;52.510;5.718;2023-08-17T07:54:33;18.30;72.90
81315;DHT22;72214;52.510;5.718;2023-08-17T07:57:05;18.30;72.90
81315;DHT22;72214;52.510;5.718;2023-08-17T07:59:34;18.40;72.80
81315;DHT22;72214;52.510;5.718;2023-08-17T08:02:04;18.40;72.70
81315;DHT22;72214;52.510;5.718;2023-08-17T08:04:33;18.40;72.70
81315;DHT22;72214;52.510;5.718;2023-08-17T08:07:02;18.50;72.60
81315;DHT22;72214;52.510;5.718;2023-08-17T08:09:31;18.50;72.50
81315;DHT22;72214;52.510;5.718;2023-08-17T08:12:01;18.60;72.50
81315;DHT22;72214;52.510;5.718;2023-08-17T08:14:35;18.70;72.30
81315;DHT22;72214;52.510;5.718;2023-08-17T08:17:04;18.70;72.20
81315;DHT22;72214;52.510;5.718;2023-08-17T08:19:34;18.70;72.20
81315;DHT22;72214;52.510;5.718;2023-08-17T08:22:04;18.70;72.20
81315;DHT22;72214;52.510;5.718;2023-08-17T08:24:33;18.80;72.10
81315;DHT22;72214;52.510;5.718;2023-08-17T08:27:03;18.80;72.00
81315;DHT22;72214;52.510;5.718;2023-08-17T08:29:35;18.80;72.00
81315;DHT22;72214;52.510;5.718;2023-08-17T08:32:04;18.80;72.00
81315;DHT22;72214;52.510;5.718;2023-08-17T08:34:33;18.80;72.00
81315;DHT22;72214;52.510;5.718;2023-08-17T08:37:03;18.80;72.00
81315;DHT22;72214;52.510;5.718;2023-08-17T08:39:32;18.80;72.00
81315;DHT22;72214;52.510;5.718;2023-08-17T08:42:01;18.80;71.90
81315;DHT22;72214;52.510;5.718;2023-08-17T08:44:31;18.70;71.90
81315;DHT22;72214;52.510;5.718;2023-08-17T08:47:03;18.80;71.90
81315;DHT22;72214;52.510;5.718;2023-08-17T08:49:34;18.80;71.90
81315;DHT22;72214;52.510;5.718;2023-08-17T08:52:08;18.80;71.90
81315;DHT22;72214;52.510;5.718;2023-08-17T08:54:38;18.90;71.80
81315;DHT22;72214;52.510;5.718;2023-08-17T08:57:12;18.90;71.80
81315;DHT22;72214;52.510;5.718;2023-08-17T08:59:43;19.00;71.70
81315;DHT22;72214;52.510;5.718;2023-08-17T09:02:16;19.10;71.60
81315;DHT22;72214;52.510;5.718;2023-08-17T09:04:46;19.20;71.60
81315;DHT22;72214;52.510;5.718;2023-08-17T09:07:16;19.30;71.50
81315;DHT22;72214;52.510;5.718;2023-08-17T09:09:46;19.50;71.30
81315;DHT22;72214;52.510;5.718;2023-08-17T09:12:16;19.60;71.10
81315;DHT22;72214;52.510;5.718;2023-08-17T09:14:45;19.70;71.00
81315;DHT22;72214;52.510;5.718;2023-08-17T09:17:23;19.70;71.00
81315;DHT22;72214;52.510;5.718;2023-08-17T09:19:52;19.70;70.80
81315;DHT22;72214;52.510;5.718;2023-08-17T09:22:23;19.80;70.80
81315;DHT22;72214;52.510;5.718;2023-08-17T09:24:52;19.90;70.80
81315;DHT22;72214;52.510;5.718;2023-08-17T09:27:43;20.20;70.70
81315;DHT22;72214;52.510;5.718;2023-08-17T09:30:13;20.00;70.70
81315;DHT22;72214;52.510;5.718;2023-08-17T09:32:42;19.90;70.70
81315;DHT22;72214;52.510;5.718;2023-08-17T09:35:12;19.90;70.70
81315;DHT22;72214;52.510;5.718;2023-08-17T09:37:41;19.90;70.60
81315;DHT22;72214;52.510;5.718;2023-08-17T09:40:11;19.90;70.70
81315;DHT22;72214;52.510;5.718;2023-08-17T09:42:43;19.90;70.70
81315;DHT22;72214;52.510;5.718;2023-08-17T09:45:13;19.90;70.60
81315;DHT22;72214;52.510;5.718;2023-08-17T09:47:46;19.90;70.60
81315;DHT22;72214;52.510;5.718;2023-08-17T09:50:15;20.00;70.50
81315;DHT22;72214;52.510;5.718;2023-08-17T09:52:44;20.00;70.40
81315;DHT22;72214;52.510;5.718;2023-08-17T09:55:14;20.10;70.30
81315;DHT22;72214;52.510;5.718;2023-08-17T09:57:46;20.10;70.30
81315;DHT22;72214;52.510;5.718;2023-08-17T10:00:19;20.20;70.20
81315;DHT22;72214;52.510;5.718;2023-08-17T10:02:50;20.30;70.10
81315;DHT22;72214;52.510;5.718;2023-08-17T10:05:20;20.30;70.00
81315;DHT22;72214;52.510;5.718;2023-08-17T10:07:54;20.40;69.90
81315;DHT22;72214;52.510;5.718;2023-08-17T10:10:27;20.30;70.00
81315;DHT22;72214;52.510;5.718;2023-08-17T10:13:06;20.30;70.00
81315;DHT22;72214;52.510;5.718;2023-08-17T10:15:41;20.30;70.00
81315;DHT22;72214;52.510;5.718;2023-08-17T10:18:25;20.30;70.10
81315;DHT22;72214;52.510;5.718;2023-08-17T10:21:01;20.30;70.10
81315;DHT22;72214;52.510;5.718;2023-08-17T10:23:31;20.30;70.20
81315;DHT22;72214;52.510;5.718;2023-08-17T10:26:01;20.20;70.20
81315;DHT22;72214;52.510;5.718;2023-08-17T10:28:34;20.20;70.10
81315;DHT22;72214;52.510;5.718;2023-08-17T10:31:03;20.20;70.10
81315;DHT22;72214;52.510;5.718;2023-08-17T10:33:33;20.20;70.10
81315;DHT22;72214;52.510;5.718;2023-08-17T10:36:05;20.20;70.10
81315;DHT22;72214;52.510;5.718;2023-08-17T10:38:35;20.10;70.20
81315;DHT22;72214;52.510;5.718;2023-08-17T10:41:11;20.10;70.20
81315;DHT22;72214;52.510;5.718;2023-08-17T10:44:00;20.10;70.20
81315;DHT22;72214;52.510;5.718;2023-08-17T10:46:33;20.20;70.20
81315;DHT22;72214;52.510;5.718;2023-08-17T10:49:04;20.20;70.20
81315;DHT22;72214;52.510;5.718;2023-08-17T10:51:34;20.20;70.20
81315;DHT22;72214;52.510;5.718;2023-08-17T10:54:04;20.20;70.20
81315;DHT22;72214;52.510;5.718;2023-08-17T10:56:35;20.30;70.20
81315;DHT22;72214;52.510;5.718;2023-08-17T10:59:24;20.20;70.20
81315;DHT22;72214;52.510;5.718;2023-08-17T11:01:54;20.20;70.30
81315;DHT22;72214;52.510;5.718;2023-08-17T11:04:23;20.20;70.30
81315;DHT22;72214;52.510;5.718;2023-08-17T11:07:01;20.30;70.30
81315;DHT22;72214;52.510;5.718;2023-08-17T11:09:31;20.30;70.20
81315;DHT22;72214;52.510;5.718;2023-08-17T11:12:00;20.30;70.20
81315;DHT22;72214;52.510;5.718;2023-08-17T11:14:35;20.30;70.20
81315;DHT22;72214;52.510;5.718;2023-08-17T11:17:04;20.30;70.10
81315;DHT22;72214;52.510;5.718;2023-08-17T11:19:33;20.30;70.10
81315;DHT22;72214;52.510;5.718;2023-08-17T11:22:03;20.30;70.20
81315;DHT22;72214;52.510;5.718;2023-08-17T11:24:32;20.30;70.20
81315;DHT22;72214;52.510;5.718;2023-08-17T11:27:06;20.30;70.20
81315;DHT22;72214;52.510;5.718;2023-08-17T11:29:38;20.30;70.20
81315;DHT22;72214;52.510;5.718;2023-08-17T11:32:08;20.40;70.10
81315;DHT22;72214;52.510;5.718;2023-08-17T11:34:38;20.50;70.20
81315;DHT22;72214;52.510;5.718;2023-08-17T11:37:11;20.50;70.10
81315;DHT22;72214;52.510;5.718;2023-08-17T11:39:40;20.50;70.00
81315;DHT22;72214;52.510;5.718;2023-08-17T11:42:10;20.50;70.10
81315;DHT22;72214;52.510;5.718;2023-08-17T11:44:41;20.50;70.10
81315;DHT22;72214;52.510;5.718;2023-08-17T11:47:11;20.50;70.10
81315;DHT22;72214;52.510;5.718;2023-08-17T11:49:40;20.60;70.00
81315;DHT22;72214;52.510;5.718;2023-08-17T11:52:10;20.50;70.10
81315;DHT22;72214;52.510;5.718;2023-08-17T11:54:40;20.50;70.10
81315;DHT22;72214;52.510;5.718;2023-08-17T11:57:09;20.50;70.10
81315;DHT22;72214;52.510;5.718;2023-08-17T11:59:41;20.50;70.20
81315;DHT22;72214;52.510;5.718;2023-08-17T12:02:10;20.50;70.10
81315;DHT22;72214;52.510;5.718;2023-08-17T12:04:41;20.50;70.10
81315;DHT22;72214;52.510;5.718;2023-08-17T12:07:12;20.60;70.10
81315;DHT22;72214;52.510;5.718;2023-08-17T12:09:42;20.60;70.00
81315;DHT22;72214;52.510;5.718;2023-08-17T12:12:12;20.70;70.00
81315;DHT22;72214;52.510;5.718;2023-08-17T12:14:45;20.70;69.90
81315;DHT22;72214;52.510;5.718;2023-08-17T12:17:15;20.80;69.80
81315;DHT22;72214;52.510;5.718;2023-08-17T12:19:48;20.80;69.80
81315;DHT22;72214;52.510;5.718;2023-08-17T12:22:17;20.90;69.80
81315;DHT22;72214;52.510;5.718;2023-08-17T12:24:47;20.90;69.80
81315;DHT22;72214;52.510;5.718;2023-08-17T12:27:17;20.90;69.80
81315;DHT22;72214;52.510;5.718;2023-08-17T12:29:49;20.90;69.80
81315;DHT22;72214;52.510;5.718;2023-08-17T12:32:20;20.90;69.80
81315;DHT22;72214;52.510;5.718;2023-08-17T12:34:49;20.90;69.80
81315;DHT22;72214;52.510;5.718;2023-08-17T12:37:19;20.90;69.80
81315;DHT22;72214;52.510;5.718;2023-08-17T12:39:49;20.90;69.80
81315;DHT22;72214;52.510;5.718;2023-08-17T12:42:18;20.90;69.90
81315;DHT22;72214;52.510;5.718;2023-08-17T12:44:50;20.90;69.80
81315;DHT22;72214;52.510;5.718;2023-08-17T12:47:19;20.80;69.90
81315;DHT22;72214;52.510;5.718;2023-08-17T12:49:48;20.80;69.90
81315;DHT22;72214;52.510;5.718;2023-08-17T12:52:17;20.80;69.90
81315;DHT22;72214;52.510;5.718;2023-08-17T12:54:47;20.80;70.00
81315;DHT22;72214;52.510;5.718;2023-08-17T12:57:16;20.90;69.90
81315;DHT22;72214;52.510;5.718;2023-08-17T12:59:45;20.90;69.90
81315;DHT22;72214;52.510;5.718;2023-08-17T13:02:17;21.00;69.80
81315;DHT22;72214;52.510;5.718;2023-08-17T13:04:46;21.00;69.70
81315;DHT22;72214;52.510;5.718;2023-08-17T13:07:15;21.00;69.70
81315;DHT22;72214;52.510;5.718;2023-08-17T13:09:45;21.00;69.70
81315;DHT22;72214;52.510;5.718;2023-08-17T13:12:14;21.00;69.80
81315;DHT22;72214;52.510;5.718;2023-08-17T13:14:44;21.10;69.70
81315;DHT22;72214;52.510;5.718;2023-08-17T13:17:13;21.00;69.70
81315;DHT22;72214;52.510;5.718;2023-08-17T13:19:46;21.00;69.70
81315;DHT22;72214;52.510;5.718;2023-08-17T13:22:15;21.00;69.80
81315;DHT22;72214;52.510;5.718;2023-08-17T13:24:44;21.00;69.80
81315;DHT22;72214;52.510;5.718;2023-08-17T13:27:13;20.90;69.80
81315;DHT22;72214;52.510;5.718;2023-08-17T13:29:42;20.90;69.90
81315;DHT22;72214;52.510;5.718;2023-08-17T13:32:11;20.80;69.90
81315;DHT22;72214;52.510;5.718;2023-08-17T13:34:41;20.80;69.90
81315;DHT22;72214;52.510;5.718;2023-08-17T13:37:12;20.80;70.00
81315;DHT22;72214;52.510;5.718;2023-08-17T13:39:43;20.80;70.00
81315;DHT22;72214;52.510;5.718;2023-08-17T13:42:12;20.80;70.00
81315;DHT22;72214;52.510;5.718;2023-08-17T13:44:41;20.80;70.00
81315;DHT22;72214;52.510;5.718;2023-08-17T13:47:11;20.80;70.10
81315;DHT22;72214;52.510;5.718;2023-08-17T13:49:41;20.80;70.10
81315;DHT22;72214;52.510;5.718;2023-08-17T13:52:14;20.80;70.10
81315;DHT22;72214;52.510;5.718;2023-08-17T13:54:43;20.70;70.20
81315;DHT22;72214;52.510;5.718;2023-08-17T13:57:12;20.70;70.20
81315;DHT22;72214;52.510;5.718;2023-08-17T13:59:41;20.70;70.30
81315;DHT22;72214;52.510;5.718;2023-08-17T14:02:10;20.70;70.20
81315;DHT22;72214;52.510;5.718;2023-08-17T14:04:40;20.70;70.20
81315;DHT22;72214;52.510;5.718;2023-08-17T14:07:09;20.70;70.30
81315;DHT22;72214;52.510;5.718;2023-08-17T14:09:41;20.70;70.30
81315;DHT22;72214;52.510;5.718;2023-08-17T14:12:10;20.70;70.30
81315;DHT22;72214;52.510;5.718;2023-08-17T14:14:39;20.70;70.30
81315;DHT22;72214;52.510;5.718;2023-08-17T14:17:08;20.70;70.30
81315;DHT22;72214;52.510;5.718;2023-08-17T14:19:37;20.80;70.30
81315;DHT22;72214;52.510;5.718;2023-08-17T14:22:08;20.80;70.40
81315;DHT22;72214;52.510;5.718;2023-08-17T14:24:40;20.80;70.30
81315;DHT22;72214;52.510;5.718;2023-08-17T14:27:09;20.90;70.30
81315;DHT22;72214;52.510;5.718;2023-08-17T14:29:39;20.90;70.40
81315;DHT22;72214;52.510;5.718;2023-08-17T14:32:08;20.90;70.40
81315;DHT22;72214;52.510;5.718;2023-08-17T14:34:37;21.00;70.40
81315;DHT22;72214;52.510;5.718;2023-08-17T14:37:06;21.00;70.30
81315;DHT22;72214;52.510;5.718;2023-08-17T14:39:35;21.00;70.30
81315;DHT22;72214;52.510;5.718;2023-08-17T14:42:07;21.00;70.30
81315;DHT22;72214;52.510;5.718;2023-08-17T14:44:36;21.00;70.40
81315;DHT22;72214;52.510;5.718;2023-08-17T14:47:06;21.00;70.40
81315;DHT22;72214;52.510;5.718;2023-08-17T14:49:35;21.00;70.50
81315;DHT22;72214;52.510;5.718;2023-08-17T14:52:05;21.00;70.40
81315;DHT22;72214;52.510;5.718;2023-08-17T14:54:34;21.00;70.40
81315;DHT22;72214;52.510;5.718;2023-08-17T14:57:03;20.90;70.50
81315;DHT22;72214;52.510;5.718;2023-08-17T14:59:35;20.90;70.70
81315;DHT22;72214;52.510;5.718;2023-08-17T15:02:04;20.90;70.70
81315;DHT22;72214;52.510;5.718;2023-08-17T15:04:35;20.90;70.70
81315;DHT22;72214;52.510;5.718;2023-08-17T15:07:05;20.90;70.70
81315;DHT22;72214;52.510;5.718;2023-08-17T15:09:36;20.80;70.70
81315;DHT22;72214;52.510;5.718;2023-08-17T15:12:06;20.80;70.80
81315;DHT22;72214;52.510;5.718;2023-08-17T15:14:38;20.80;70.80
81315;DHT22;72214;52.510;5.718;2023-08-17T15:17:07;20.80;70.90
81315;DHT22;72214;52.510;5.718;2023-08-17T15:19:38;20.80;70.90
81315;DHT22;72214;52.510;5.718;2023-08-17T15:22:07;20.80;71.00
81315;DHT22;72214;52.510;5.718;2023-08-17T15:24:37;20.80;70.90
81315;DHT22;72214;52.510;5.718;2023-08-17T15:27:06;20.80;70.90
81315;DHT22;72214;52.510;5.718;2023-08-17T15:29:37;20.80;71.00
81315;DHT22;72214;52.510;5.718;2023-08-17T15:32:07;20.90;71.00
81315;DHT22;72214;52.510;5.718;2023-08-17T15:34:37;20.80;71.00
81315;DHT22;72214;52.510;5.718;2023-08-17T15:37:06;20.80;71.10
81315;DHT22;72214;52.510;5.718;2023-08-17T15:39:36;20.80;71.10
81315;DHT22;72214;52.510;5.718;2023-08-17T15:42:05;20.80;71.10
81315;DHT22;72214;52.510;5.718;2023-08-17T15:44:37;20.80;71.20
81315;DHT22;72214;52.510;5.718;2023-08-17T15:47:06;20.80;71.20
81315;DHT22;72214;52.510;5.718;2023-08-17T15:49:35;20.80;71.20